Time;durP1;ratioP1;P1;durP2;ratioP2;P2;SDS_P1;SDS_P2;PMS_P1;PMS_P2;Temp;Humidity;BMP_temperature;BMP_pressure;BME280_temperature;BME280_humidity;BME280_pressure;Samples;Min_cycle;Max_cycle;Signal;HPM_P1;HPM_P2
2023/01/25 00:00:03;;;;;;;33.70;21.57;;;0.60;99.90;;;;;;5095201;28;20192;-70
2023/01/25 00:02:29;;;;;;;38.47;23.43;;;0.60;99.90;;;;;;5094980;28;20220;-71
2023/01/25 00:04:56;;;;;;;38.07;22.13;;;0.60;99.90;;;;;;5094939;28;20673;-71
2023/01/25 00:07:23;;;;;;;36.47;21.80;;;0.60;99.90;;;;;;5094867;28;20195;-71
2023/01/25 00:09:49;;;;;;;37.73;22.80;;;0.60;99.90;;;;;;5094788;28;20224;-71
2023/01/25 00:12:17;;;;;;;37.43;22.20;;;0.60;99.90;;;;;;5094977;28;20200;-71
2023/01/25 00:14:45;;;;;;;38.73;22.90;;;0.60;99.90;;;;;;5094938;28;20196;-71
2023/01/25 00:17:11;;;;;;;37.87;22.83;;;0.60;99.90;;;;;;5094799;28;20249;-71
2023/01/25 00:19:38;;;;;;;36.30;22.70;;;0.60;99.90;;;;;;5094689;28;20261;-71
2023/01/25 00:22:05;;;;;;;38.30;22.43;;;0.60;99.90;;;;;;5094923;28;20197;-70
2023/01/25 00:24:31;;;;;;;37.50;22.47;;;0.60;99.90;;;;;;5093390;28;20199;-71
2023/01/25 00:26:58;;;;;;;36.30;22.03;;;0.60;99.90;;;;;;5094581;28;20196;-71
2023/01/25 00:29:26;;;;;;;38.17;22.83;;;0.60;99.90;;;;;;5094598;28;20208;-72
2023/01/25 00:32:07;;;;;;;36.27;20.97;;;0.60;99.90;;;;;;5094484;28;20196;-72
2023/01/25 00:34:46;;;;;;;37.63;22.30;;;0.60;99.90;;;;;;5094451;28;20214;-71
2023/01/25 00:37:19;;;;;;;36.23;21.47;;;0.60;99.90;;;;;;5094660;28;20196;-72
2023/01/25 00:39:46;;;;;;;36.97;21.40;;;0.50;99.90;;;;;;5094252;28;20200;-70
2023/01/25 00:42:13;;;;;;;41.53;23.20;;;0.50;99.90;;;;;;5094242;28;20253;-71
2023/01/25 00:44:41;;;;;;;39.00;21.60;;;0.50;99.90;;;;;;5094112;28;20223;-71
2023/01/25 00:47:09;;;;;;;36.57;22.13;;;0.50;99.90;;;;;;5094479;28;20266;-71
2023/01/25 00:49:36;;;;;;;39.73;22.43;;;0.50;99.90;;;;;;5094277;28;20262;-71
2023/01/25 00:52:03;;;;;;;39.03;22.27;;;0.50;99.90;;;;;;5094212;28;20204;-71
2023/01/25 00:54:29;;;;;;;40.53;22.90;;;0.50;99.90;;;;;;5093185;28;20242;-70
2023/01/25 00:56:56;;;;;;;40.87;22.47;;;0.50;99.90;;;;;;5094030;28;20560;-71
2023/01/25 00:59:23;;;;;;;36.40;21.60;;;0.50;99.90;;;;;;5093932;28;20200;-70
2023/01/25 01:01:52;;;;;;;36.70;22.07;;;0.50;99.90;;;;;;5094060;28;20196;-70
2023/01/25 01:04:20;;;;;;;38.20;22.27;;;0.50;99.90;;;;;;5093744;28;20752;-70
2023/01/25 01:06:46;;;;;;;37.37;21.27;;;0.50;99.90;;;;;;5093766;28;20196;-70
2023/01/25 01:09:15;;;;;;;38.77;21.67;;;0.50;99.90;;;;;;5093618;28;20289;-71
2023/01/25 01:11:42;;;;;;;40.93;22.67;;;0.50;99.90;;;;;;5093636;28;20192;-70
2023/01/25 01:14:09;;;;;;;40.13;22.03;;;0.40;99.90;;;;;;5093887;28;20205;-70
2023/01/25 01:16:35;;;;;;;36.53;20.13;;;0.40;99.90;;;;;;5093618;28;20839;-70
2023/01/25 01:19:04;;;;;;;39.23;22.20;;;0.40;99.90;;;;;;5093720;28;20201;-71
2023/01/25 01:21:30;;;;;;;38.20;21.87;;;0.40;99.90;;;;;;5093944;28;20211;-71
2023/01/25 01:23:57;;;;;;;39.03;21.93;;;0.50;99.90;;;;;;5093447;28;20246;-71
2023/01/25 01:26:23;;;;;;;38.90;21.67;;;0.40;99.90;;;;;;5093425;28;20598;-71
2023/01/25 01:28:50;;;;;;;37.07;21.30;;;0.40;99.90;;;;;;5093583;28;20659;-71
2023/01/25 01:31:19;;;;;;;39.70;22.50;;;0.40;99.90;;;;;;5093287;28;20652;-72
2023/01/25 01:33:49;;;;;;;37.57;21.13;;;0.40;99.90;;;;;;5093226;28;20639;-71
2023/01/25 01:36:19;;;;;;;43.90;22.40;;;0.40;99.90;;;;;;5093325;28;20424;-71
2023/01/25 01:38:47;;;;;;;41.53;21.30;;;0.40;99.90;;;;;;5093242;28;20245;-71
2023/01/25 01:41:14;;;;;;;35.33;20.63;;;0.40;99.90;;;;;;5093084;28;20728;-71
2023/01/25 01:43:41;;;;;;;36.73;20.80;;;0.40;99.90;;;;;;5093047;28;20698;-70
2023/01/25 01:46:13;;;;;;;37.73;20.60;;;0.40;99.90;;;;;;5093280;28;20196;-70
2023/01/25 01:48:44;;;;;;;34.43;19.27;;;0.40;99.90;;;;;;5093256;28;20230;-70
2023/01/25 01:51:18;;;;;;;35.70;18.43;;;0.40;99.90;;;;;;5093024;28;20196;-70
2023/01/25 01:53:49;;;;;;;33.37;18.97;;;0.30;99.90;;;;;;5093336;28;20248;-70
2023/01/25 01:56:20;;;;;;;36.80;19.53;;;0.30;99.90;;;;;;5092917;28;20667;-70
2023/01/25 01:58:48;;;;;;;38.07;20.10;;;0.30;99.90;;;;;;5093064;28;20561;-70
2023/01/25 02:01:16;;;;;;;40.23;20.60;;;0.30;99.90;;;;;;5093035;28;20226;-70
2023/01/25 02:03:43;;;;;;;35.93;19.80;;;0.30;99.90;;;;;;5092859;28;20277;-70
2023/01/25 02:06:15;;;;;;;35.23;19.83;;;0.30;99.90;;;;;;5093223;28;20223;-70
2023/01/25 02:08:44;;;;;;;37.13;19.93;;;0.30;99.90;;;;;;5093047;28;20200;-71
2023/01/25 02:11:12;;;;;;;38.10;21.07;;;0.20;99.90;;;;;;5092864;28;20214;-71
2023/01/25 02:13:39;;;;;;;36.20;19.57;;;0.30;99.90;;;;;;5092856;28;20196;-71
2023/01/25 02:16:13;;;;;;;38.10;20.80;;;0.30;99.90;;;;;;5092851;28;20370;-71
2023/01/25 02:18:40;;;;;;;35.63;20.90;;;0.30;99.90;;;;;;5092739;28;20693;-71
2023/01/25 02:21:07;;;;;;;39.77;20.87;;;0.30;99.90;;;;;;5092915;28;20200;-70
2023/01/25 02:23:42;;;;;;;41.67;20.83;;;0.30;99.90;;;;;;5092857;28;20216;-70
2023/01/25 02:26:11;;;;;;;37.60;19.70;;;0.30;99.90;;;;;;5092781;28;20204;-70
2023/01/25 02:28:41;;;;;;;37.10;20.10;;;0.30;99.90;;;;;;5092692;28;20196;-70
2023/01/25 02:31:08;;;;;;;37.20;20.40;;;0.30;99.90;;;;;;5092915;28;20262;-70
2023/01/25 02:33:34;;;;;;;37.07;18.50;;;0.30;99.90;;;;;;5092827;28;20253;-71
2023/01/25 02:36:19;;;;;;;33.73;18.30;;;0.30;99.90;;;;;;5092646;28;20560;-71
2023/01/25 02:38:52;;;;;;;38.80;20.00;;;0.30;99.90;;;;;;5092626;28;20648;-71
2023/01/25 02:41:25;;;;;;;40.23;19.50;;;0.30;99.90;;;;;;5092492;28;20261;-70
2023/01/25 02:43:53;;;;;;;36.50;19.90;;;0.20;99.90;;;;;;5092753;28;20650;-70
2023/01/25 02:46:26;;;;;;;37.13;20.13;;;0.20;99.90;;;;;;5092636;28;20203;-70
2023/01/25 02:48:53;;;;;;;34.37;18.60;;;0.20;99.90;;;;;;5092565;28;20686;-71
2023/01/25 02:51:20;;;;;;;36.47;19.37;;;0.20;99.90;;;;;;5092437;28;20201;-71
2023/01/25 02:53:47;;;;;;;28.90;17.33;;;0.20;99.90;;;;;;5092359;28;20709;-71
2023/01/25 02:56:14;;;;;;;35.63;19.07;;;0.20;99.90;;;;;;5092688;28;20192;-70
2023/01/25 02:58:42;;;;;;;36.63;19.87;;;0.20;99.90;;;;;;5092419;28;20717;-70
2023/01/25 03:01:09;;;;;;;40.77;20.50;;;0.20;99.90;;;;;;5092415;28;20196;-70
2023/01/25 03:03:35;;;;;;;34.97;18.73;;;0.20;99.90;;;;;;5092279;28;20274;-70
2023/01/25 03:06:02;;;;;;;37.43;20.30;;;0.20;99.90;;;;;;5092262;28;20257;-71
2023/01/25 03:08:29;;;;;;;36.87;19.63;;;0.20;99.90;;;;;;5092168;28;20329;-70
2023/01/25 03:10:57;;;;;;;39.70;21.13;;;0.20;99.90;;;;;;5092009;28;20768;-71
2023/01/25 03:13:24;;;;;;;38.97;20.03;;;0.20;99.90;;;;;;5092275;28;20283;-71
2023/01/25 03:15:52;;;;;;;35.43;19.43;;;0.20;99.90;;;;;;5092146;28;20196;-70
2023/01/25 03:18:19;;;;;;;40.60;20.63;;;0.10;99.90;;;;;;5094586;28;20250;-70
2023/01/25 03:20:46;;;;;;;34.90;19.17;;;0.20;99.90;;;;;;5095783;28;20196;-71
2023/01/25 03:23:12;;;;;;;39.10;19.70;;;0.20;99.90;;;;;;5095584;28;20215;-71
2023/01/25 03:25:39;;;;;;;43.07;20.83;;;0.20;99.90;;;;;;5095863;28;20200;-71
2023/01/25 03:28:05;;;;;;;38.20;18.73;;;0.20;99.90;;;;;;5095799;28;20240;-70
2023/01/25 03:30:32;;;;;;;42.30;21.03;;;0.20;99.90;;;;;;5095688;28;20196;-71
2023/01/25 03:33:00;;;;;;;38.90;20.90;;;0.20;99.90;;;;;;5095343;28;20664;-71
2023/01/25 03:35:27;;;;;;;38.77;20.03;;;0.10;99.90;;;;;;5095439;28;20253;-71
2023/01/25 03:37:53;;;;;;;38.70;19.67;;;0.20;99.90;;;;;;5095701;28;20200;-71
2023/01/25 03:40:20;;;;;;;37.43;19.10;;;0.20;99.90;;;;;;5095289;28;20196;-71
2023/01/25 03:42:47;;;;;;;36.97;18.43;;;0.10;99.90;;;;;;5095641;28;20234;-71
2023/01/25 03:45:14;;;;;;;38.13;18.93;;;0.10;99.90;;;;;;5095458;28;20223;-70
2023/01/25 03:47:40;;;;;;;32.40;17.73;;;0.10;99.90;;;;;;5095268;28;20199;-71
2023/01/25 03:50:10;;;;;;;37.03;18.80;;;0.10;99.90;;;;;;5095112;28;20201;-71
2023/01/25 03:52:39;;;;;;;34.07;18.40;;;0.10;99.90;;;;;;5095174;28;20647;-71
2023/01/25 03:55:07;;;;;;;35.27;17.40;;;0.10;99.90;;;;;;5095187;28;20352;-71
2023/01/25 03:57:33;;;;;;;36.60;18.87;;;0.10;99.90;;;;;;5095118;28;20197;-72
2023/01/25 04:00:00;;;;;;;38.03;20.03;;;0.10;99.90;;;;;;5095108;28;20253;-72
2023/01/25 04:02:27;;;;;;;37.97;19.47;;;0.10;99.90;;;;;;5094809;28;20656;-72
2023/01/25 04:04:53;;;;;;;39.90;19.77;;;0.10;99.90;;;;;;5094787;28;20580;-72
2023/01/25 04:07:21;;;;;;;37.73;19.97;;;0.10;99.90;;;;;;5095009;28;20242;-72
2023/01/25 04:09:49;;;;;;;44.80;21.27;;;0.10;99.90;;;;;;5094666;28;20784;-72
2023/01/25 04:12:15;;;;;;;42.07;21.23;;;0.10;99.90;;;;;;5094778;28;20197;-72
2023/01/25 04:14:42;;;;;;;45.00;21.13;;;0.10;99.90;;;;;;5094859;28;20626;-72
2023/01/25 04:17:09;;;;;;;49.23;21.27;;;0.10;99.90;;;;;;5094754;28;20192;-72
2023/01/25 04:19:36;;;;;;;43.53;22.20;;;0.10;99.90;;;;;;5094594;28;20686;-72
2023/01/25 04:22:02;;;;;;;46.77;21.30;;;0.10;99.90;;;;;;5094761;28;20193;-71
2023/01/25 04:24:30;;;;;;;41.90;21.33;;;0.10;99.90;;;;;;5094485;28;20224;-71
2023/01/25 04:26:57;;;;;;;40.37;20.57;;;0.10;99.90;;;;;;5094450;28;20197;-71
2023/01/25 04:29:24;;;;;;;43.13;20.90;;;0.10;99.90;;;;;;5094467;28;20242;-71
2023/01/25 04:31:50;;;;;;;47.57;21.90;;;0.10;99.90;;;;;;5094311;28;20279;-70
2023/01/25 04:34:17;;;;;;;38.20;19.93;;;0.10;99.90;;;;;;5094406;28;20196;-70
2023/01/25 04:36:43;;;;;;;44.87;20.97;;;0.00;99.90;;;;;;5094429;28;20196;-70
2023/01/25 04:39:10;;;;;;;44.83;21.17;;;0.00;99.90;;;;;;5094089;28;20663;-71
2023/01/25 04:41:38;;;;;;;43.93;20.93;;;0.10;99.90;;;;;;5094172;28;20200;-71
2023/01/25 04:44:05;;;;;;;43.40;21.73;;;0.10;99.90;;;;;;5093886;28;20212;-70
2023/01/25 04:46:31;;;;;;;43.83;20.43;;;0.10;99.90;;;;;;5094282;28;20200;-71
2023/01/25 04:48:58;;;;;;;50.00;22.67;;;0.10;99.90;;;;;;5093907;28;20675;-71
2023/01/25 04:51:24;;;;;;;48.40;22.37;;;0.10;99.90;;;;;;5094158;28;20201;-71
2023/01/25 04:53:51;;;;;;;47.10;22.00;;;0.10;99.90;;;;;;5094091;28;20196;-71
2023/01/25 04:56:18;;;;;;;49.47;24.70;;;0.10;99.90;;;;;;5093931;28;20196;-70
2023/01/25 04:58:46;;;;;;;45.43;22.50;;;0.10;99.90;;;;;;5093858;28;20196;-70
2023/01/25 05:01:12;;;;;;;39.73;20.23;;;0.10;99.90;;;;;;5093929;28;20197;-71
2023/01/25 05:03:39;;;;;;;42.93;21.00;;;0.00;99.90;;;;;;5093792;28;20597;-71
2023/01/25 05:06:06;;;;;;;41.37;21.37;;;0.00;99.90;;;;;;5093722;28;20196;-71
2023/01/25 05:08:33;;;;;;;41.80;21.43;;;0.00;99.90;;;;;;5093780;28;20200;-71
2023/01/25 05:10:59;;;;;;;40.63;20.70;;;0.00;99.90;;;;;;5093449;28;20297;-72
2023/01/25 05:13:26;;;;;;;41.43;20.37;;;0.00;99.90;;;;;;5093430;28;20200;-72
2023/01/25 05:15:56;;;;;;;40.77;21.37;;;-0.10;99.90;;;;;;5093716;28;20200;-72
2023/01/25 05:18:22;;;;;;;43.93;21.70;;;0.00;99.90;;;;;;5093458;28;20540;-72
2023/01/25 05:20:54;;;;;;;39.13;20.00;;;0.00;99.90;;;;;;5093448;28;20208;-72
2023/01/25 05:23:20;;;;;;;42.10;21.53;;;0.00;99.90;;;;;;5093440;28;20200;-72
2023/01/25 05:28:31;;;;;;;42.87;21.00;;;0.00;99.90;;;;;;5093391;28;20281;-71
2023/01/25 05:31:02;;;;;;;45.77;22.10;;;0.00;99.90;;;;;;5093211;28;20555;-72
2023/01/25 05:33:29;;;;;;;40.93;22.23;;;0.00;99.90;;;;;;5093176;28;20568;-72
2023/01/25 05:35:57;;;;;;;40.50;21.63;;;0.00;99.90;;;;;;5093355;28;20261;-72
2023/01/25 05:38:24;;;;;;;47.70;23.40;;;0.00;99.90;;;;;;5093115;28;20638;-73
2023/01/25 05:40:51;;;;;;;41.90;21.77;;;0.00;99.90;;;;;;5092764;28;20270;-72
2023/01/25 05:43:17;;;;;;;36.87;20.17;;;0.00;99.90;;;;;;5093097;28;20720;-71
2023/01/25 05:45:44;;;;;;;38.43;20.93;;;-0.10;99.90;;;;;;5093059;28;20273;-72
2023/01/25 05:48:12;;;;;;;37.07;19.13;;;0.00;99.90;;;;;;5093095;28;20200;-72
2023/01/25 05:50:38;;;;;;;40.67;19.87;;;0.00;99.90;;;;;;5093162;28;20241;-71
2023/01/25 05:53:05;;;;;;;42.07;21.13;;;-0.10;99.90;;;;;;5092891;28;20200;-71
2023/01/25 05:55:31;;;;;;;42.77;21.70;;;-0.10;99.90;;;;;;5093170;28;20541;-71
2023/01/25 05:57:58;;;;;;;41.47;21.17;;;-0.10;99.90;;;;;;5093153;28;20196;-71
2023/01/25 06:00:25;;;;;;;39.40;20.37;;;-0.10;99.90;;;;;;5092837;28;20717;-72
2023/01/25 06:02:51;;;;;;;41.40;20.90;;;-0.10;99.90;;;;;;5092884;28;20250;-71
2023/01/25 06:05:19;;;;;;;35.83;19.37;;;-0.10;99.90;;;;;;5092600;28;20655;-71
2023/01/25 06:07:46;;;;;;;34.90;20.00;;;-0.10;99.90;;;;;;5093058;28;20196;-72
2023/01/25 06:10:12;;;;;;;37.67;19.07;;;-0.10;99.90;;;;;;5092513;28;20269;-71
2023/01/25 06:12:39;;;;;;;39.90;20.90;;;-0.10;99.90;;;;;;5092791;28;20545;-72
2023/01/25 06:15:06;;;;;;;36.70;18.40;;;-0.10;99.90;;;;;;5092804;28;20192;-71
2023/01/25 06:17:33;;;;;;;43.17;18.87;;;-0.20;99.90;;;;;;5092160;28;20200;-71
2023/01/25 06:20:00;;;;;;;37.80;18.37;;;-0.20;99.90;;;;;;5092486;28;20397;-72
2023/01/25 06:22:27;;;;;;;33.23;17.93;;;-0.20;99.90;;;;;;5092784;28;20269;-72
2023/01/25 06:24:54;;;;;;;34.77;17.37;;;-0.20;99.90;;;;;;5092739;28;20280;-72
2023/01/25 06:27:21;;;;;;;32.50;17.57;;;-0.20;99.90;;;;;;5092509;28;20250;-72
2023/01/25 06:29:47;;;;;;;33.37;17.50;;;-0.20;99.90;;;;;;5092680;28;20196;-71
2023/01/25 06:32:14;;;;;;;32.10;16.63;;;-0.20;99.90;;;;;;5092546;28;20226;-72
2023/01/25 06:34:40;;;;;;;29.80;16.80;;;-0.20;99.90;;;;;;5092502;28;20208;-72
2023/01/25 06:37:07;;;;;;;31.63;17.17;;;-0.30;99.90;;;;;;5092559;28;20196;-72
2023/01/25 06:39:35;;;;;;;34.03;18.00;;;-0.30;99.90;;;;;;5092656;28;20226;-71
2023/01/25 06:42:01;;;;;;;32.67;18.43;;;-0.20;99.90;;;;;;5092570;28;20192;-71
2023/01/25 06:44:28;;;;;;;33.93;17.27;;;-0.20;99.90;;;;;;5092218;28;20756;-71
2023/01/25 06:46:56;;;;;;;32.60;17.80;;;-0.20;99.90;;;;;;5092367;28;20197;-71
2023/01/25 06:49:23;;;;;;;30.57;18.10;;;-0.20;99.90;;;;;;5092348;28;20196;-72
2023/01/25 06:51:49;;;;;;;34.70;18.80;;;-0.20;99.90;;;;;;5092892;28;20196;-71
2023/01/25 06:54:16;;;;;;;37.07;19.03;;;-0.30;99.90;;;;;;5096567;28;20201;-72
2023/01/25 06:56:44;;;;;;;36.67;19.70;;;-0.30;99.90;;;;;;5096191;28;20249;-71
2023/01/25 06:59:11;;;;;;;34.33;20.10;;;-0.20;99.90;;;;;;5096290;28;20200;-71
2023/01/25 07:01:37;;;;;;;36.30;20.00;;;-0.20;99.90;;;;;;5096151;28;20192;-72
2023/01/25 07:04:04;;;;;;;37.13;20.23;;;-0.10;99.90;;;;;;5096069;28;20201;-71
2023/01/25 07:06:33;;;;;;;40.17;21.43;;;-0.20;99.90;;;;;;5096073;28;20482;-71
2023/01/25 07:09:03;;;;;;;35.13;20.10;;;-0.20;99.90;;;;;;5095949;28;20204;-71
2023/01/25 07:11:29;;;;;;;41.30;20.90;;;-0.20;99.90;;;;;;5096367;28;20590;-70
2023/01/25 07:13:57;;;;;;;38.87;21.20;;;-0.20;99.90;;;;;;5096105;28;20192;-71
2023/01/25 07:16:24;;;;;;;36.90;19.93;;;-0.20;99.90;;;;;;5095911;28;20204;-71
2023/01/25 07:18:50;;;;;;;37.90;20.20;;;-0.20;99.90;;;;;;5096068;28;20204;-71
2023/01/25 07:21:19;;;;;;;40.40;21.40;;;-0.20;99.90;;;;;;5095843;28;20604;-70
2023/01/25 07:23:45;;;;;;;40.37;21.97;;;-0.20;99.90;;;;;;5095885;28;20200;-71
2023/01/25 07:26:16;;;;;;;39.40;20.57;;;-0.20;99.90;;;;;;5095591;28;20277;-72
2023/01/25 07:28:43;;;;;;;38.53;21.30;;;-0.20;99.90;;;;;;5095727;28;20196;-72
2023/01/25 07:31:11;;;;;;;37.23;19.93;;;-0.20;99.90;;;;;;5096086;28;20250;-71
2023/01/25 07:33:37;;;;;;;37.87;20.00;;;-0.20;99.90;;;;;;5095763;28;20201;-71
2023/01/25 07:36:06;;;;;;;38.97;20.23;;;-0.20;99.90;;;;;;5095740;28;20242;-72
2023/01/25 07:38:33;;;;;;;41.47;20.97;;;-0.20;99.90;;;;;;5095574;28;20652;-72
2023/01/25 07:41:00;;;;;;;35.23;20.10;;;-0.20;99.90;;;;;;5095401;28;20197;-72
2023/01/25 07:43:27;;;;;;;36.90;20.50;;;-0.20;99.90;;;;;;5095364;28;20193;-72
2023/01/25 07:45:59;;;;;;;40.20;20.63;;;-0.20;99.90;;;;;;5095416;28;20228;-72
2023/01/25 07:48:27;;;;;;;34.93;19.43;;;-0.20;99.90;;;;;;5095485;28;20197;-72
2023/01/25 07:51:10;;;;;;;39.60;20.10;;;-0.20;99.90;;;;;;5095393;28;20202;-72
2023/01/25 07:53:37;;;;;;;39.30;20.70;;;-0.10;99.90;;;;;;5095368;28;20200;-70
2023/01/25 07:56:04;;;;;;;30.17;16.87;;;-0.10;99.90;;;;;;5095097;28;20204;-71
2023/01/25 07:58:30;;;;;;;27.50;16.33;;;-0.20;99.90;;;;;;5095158;28;20209;-71
2023/01/25 08:00:57;;;;;;;28.50;16.50;;;-0.20;99.90;;;;;;5095258;28;20250;-71
2023/01/25 08:03:23;;;;;;;24.73;14.17;;;-0.10;99.90;;;;;;5094837;28;20253;-71
2023/01/25 08:05:51;;;;;;;25.43;14.33;;;0.00;99.90;;;;;;5094995;28;20228;-71
2023/01/25 08:08:18;;;;;;;25.03;15.07;;;-0.10;99.90;;;;;;5094892;28;20559;-71
2023/01/25 08:10:45;;;;;;;27.07;15.03;;;-0.10;99.90;;;;;;5094761;28;20236;-71
2023/01/25 08:13:11;;;;;;;22.20;12.90;;;0.00;99.90;;;;;;5094781;28;20609;-71
2023/01/25 08:15:38;;;;;;;23.67;13.50;;;0.00;99.90;;;;;;5094948;28;20196;-71
2023/01/25 08:18:05;;;;;;;22.53;13.10;;;0.00;99.90;;;;;;5094838;28;20199;-71
2023/01/25 08:20:31;;;;;;;16.47;11.43;;;0.00;99.90;;;;;;5094794;28;20192;-71
2023/01/25 08:22:59;;;;;;;16.93;11.10;;;0.10;99.90;;;;;;5094469;28;20722;-71
2023/01/25 08:25:26;;;;;;;18.90;11.33;;;0.00;99.90;;;;;;5094664;28;20220;-72
2023/01/25 08:27:53;;;;;;;17.00;11.70;;;0.10;99.90;;;;;;5094838;28;20627;-71
2023/01/25 08:30:20;;;;;;;17.50;11.60;;;0.10;99.90;;;;;;5094677;28;20651;-72
2023/01/25 08:32:46;;;;;;;18.77;11.43;;;0.10;99.90;;;;;;5094415;28;20205;-71
2023/01/25 08:35:13;;;;;;;17.57;11.23;;;0.20;99.90;;;;;;5094429;28;20193;-71
2023/01/25 08:37:40;;;;;;;18.37;11.97;;;0.20;99.90;;;;;;5094460;28;20492;-71
2023/01/25 08:40:12;;;;;;;16.70;11.00;;;0.20;99.90;;;;;;5094477;28;20204;-71
2023/01/25 08:42:41;;;;;;;17.50;10.70;;;0.20;99.90;;;;;;5094371;28;20671;-72
2023/01/25 08:45:09;;;;;;;17.27;10.03;;;0.20;99.90;;;;;;5094424;28;20212;-71
2023/01/25 08:47:35;;;;;;;16.03;9.27;;;0.20;99.90;;;;;;5094386;28;20250;-71
2023/01/25 08:50:02;;;;;;;14.90;9.77;;;0.20;99.90;;;;;;5094275;28;20196;-70
2023/01/25 08:52:29;;;;;;;16.20;10.23;;;0.20;99.90;;;;;;5094487;28;20254;-70
2023/01/25 08:54:55;;;;;;;15.50;10.57;;;0.20;99.90;;;;;;5094313;28;20200;-71
2023/01/25 08:57:23;;;;;;;15.57;11.03;;;0.20;99.90;;;;;;5094257;28;20201;-71
2023/01/25 08:59:50;;;;;;;15.17;10.20;;;0.20;99.90;;;;;;5094229;28;20200;-71
2023/01/25 09:02:18;;;;;;;17.53;11.03;;;0.30;99.90;;;;;;5094067;28;20193;-72
2023/01/25 09:04:44;;;;;;;17.00;11.30;;;0.30;99.90;;;;;;5093772;28;20746;-71
2023/01/25 09:07:11;;;;;;;16.60;10.70;;;0.30;99.90;;;;;;5093757;28;20659;-72
2023/01/25 09:09:38;;;;;;;16.43;11.27;;;0.40;99.90;;;;;;5093758;28;20235;-72
2023/01/25 09:12:05;;;;;;;18.60;11.20;;;0.40;99.90;;;;;;5093846;28;20269;-71
2023/01/25 09:14:33;;;;;;;17.23;11.30;;;0.40;99.90;;;;;;5093184;28;20251;-71
2023/01/25 09:16:59;;;;;;;16.83;11.03;;;0.30;99.90;;;;;;5093668;28;20204;-72
2023/01/25 09:19:26;;;;;;;17.43;11.13;;;0.30;99.90;;;;;;5093493;28;20204;-71
2023/01/25 09:21:53;;;;;;;17.50;11.20;;;0.40;99.90;;;;;;5093760;28;20241;-72
2023/01/25 09:24:19;;;;;;;17.30;11.73;;;0.40;99.90;;;;;;5093655;28;20537;-71
2023/01/25 09:26:46;;;;;;;17.47;11.27;;;0.40;99.90;;;;;;5093457;28;20224;-71
2023/01/25 09:29:13;;;;;;;16.43;11.00;;;0.40;99.90;;;;;;5093463;28;20196;-71
2023/01/25 09:31:42;;;;;;;15.40;10.57;;;0.50;99.90;;;;;;5093308;28;20600;-72
2023/01/25 09:34:10;;;;;;;16.67;10.93;;;0.50;99.90;;;;;;5093225;28;20574;-72
2023/01/25 09:36:36;;;;;;;17.97;10.30;;;0.50;99.90;;;;;;5093235;28;20652;-71
2023/01/25 09:39:03;;;;;;;18.40;12.10;;;0.50;99.90;;;;;;5093415;28;20257;-71
2023/01/25 09:42:12;;;;;;;16.20;10.57;;;0.50;99.90;;;;;;5093412;28;20246;-72
2023/01/25 09:44:52;;;;;;;18.07;11.60;;;0.60;99.90;;;;;;5092981;28;20673;-72
2023/01/25 09:47:26;;;;;;;18.00;11.57;;;0.60;99.90;;;;;;5093219;28;20541;-72
2023/01/25 09:50:15;;;;;;;17.47;11.40;;;0.60;99.90;;;;;;5092852;28;20655;-71
2023/01/25 09:53:07;;;;;;;15.80;11.37;;;0.60;99.90;;;;;;5092979;28;20212;-70
2023/01/25 09:55:34;;;;;;;19.87;11.77;;;0.60;99.90;;;;;;5093164;28;20201;-71
2023/01/25 09:58:02;;;;;;;16.13;10.30;;;0.60;99.90;;;;;;5093037;28;20208;-71
2023/01/25 10:00:33;;;;;;;17.90;11.53;;;0.70;99.90;;;;;;5092954;28;20555;-71
2023/01/25 10:03:05;;;;;;;16.03;11.03;;;0.60;99.90;;;;;;5092844;28;20195;-71
2023/01/25 10:05:40;;;;;;;19.13;13.10;;;0.60;99.90;;;;;;5093087;28;20240;-71
2023/01/25 10:08:16;;;;;;;19.87;13.37;;;0.70;99.90;;;;;;5093049;28;20241;-71
2023/01/25 10:10:45;;;;;;;18.43;13.47;;;0.70;99.90;;;;;;5091652;28;20314;-72
2023/01/25 10:13:14;;;;;;;17.43;12.00;;;0.60;99.90;;;;;;5092840;28;20223;-71
2023/01/25 10:15:44;;;;;;;17.83;11.80;;;0.70;99.90;;;;;;5092744;28;20218;-70
2023/01/25 10:18:21;;;;;;;17.43;10.90;;;0.80;99.90;;;;;;5093007;28;20258;-71
2023/01/25 10:20:53;;;;;;;16.90;11.40;;;0.80;99.90;;;;;;5092901;28;20253;-71
2023/01/25 10:23:41;;;;;;;17.37;11.50;;;0.80;99.90;;;;;;5092676;28;20200;-71
2023/01/25 10:26:14;;;;;;;16.43;11.40;;;0.80;99.90;;;;;;5093385;28;20277;-71
2023/01/25 10:28:46;;;;;;;15.47;10.97;;;0.80;99.90;;;;;;5097001;28;20204;-71
2023/01/25 10:31:18;;;;;;;18.57;11.60;;;0.80;99.90;;;;;;5096872;28;20200;-71
2023/01/25 10:33:48;;;;;;;16.50;11.97;;;0.80;99.90;;;;;;5096923;28;20196;-72
2023/01/25 10:36:16;;;;;;;18.10;11.77;;;0.80;99.90;;;;;;5096720;28;20192;-71
2023/01/25 10:38:45;;;;;;;19.07;12.20;;;0.70;99.90;;;;;;5096643;28;20203;-72
2023/01/25 10:41:17;;;;;;;18.90;13.13;;;0.80;99.90;;;;;;5096589;28;20679;-71
2023/01/25 10:43:44;;;;;;;19.10;12.57;;;0.80;99.90;;;;;;5096697;28;20250;-71
2023/01/25 10:46:18;;;;;;;17.60;11.77;;;0.90;99.90;;;;;;5096409;28;20561;-71
2023/01/25 10:48:46;;;;;;;20.17;13.63;;;0.80;99.90;;;;;;5096618;28;20703;-72
2023/01/25 10:51:29;;;;;;;18.27;12.20;;;0.80;99.90;;;;;;5096546;28;20204;-71
2023/01/25 10:54:01;;;;;;;19.63;13.00;;;0.80;99.90;;;;;;5096508;28;20196;-71
2023/01/25 10:56:29;;;;;;;21.83;13.30;;;0.90;99.90;;;;;;5096478;28;20242;-71
2023/01/25 10:59:13;;;;;;;22.87;13.17;;;0.80;99.90;;;;;;5096301;28;20679;-71
2023/01/25 11:01:40;;;;;;;19.77;12.73;;;0.90;99.90;;;;;;5096596;28;20204;-71
2023/01/25 11:04:25;;;;;;;16.60;11.47;;;0.90;99.90;;;;;;5096404;28;20201;-71
2023/01/25 11:06:52;;;;;;;19.00;12.30;;;0.80;99.90;;;;;;5095984;28;20690;-71
2023/01/25 11:09:34;;;;;;;18.93;12.43;;;0.90;99.90;;;;;;5095957;28;20224;-71
2023/01/25 11:12:02;;;;;;;19.77;12.13;;;0.90;99.90;;;;;;5096011;28;20258;-72
2023/01/25 11:14:31;;;;;;;16.73;11.37;;;0.90;99.90;;;;;;5096160;28;20205;-71
2023/01/25 11:16:59;;;;;;;18.47;11.93;;;0.90;99.90;;;;;;5095981;28;20208;-71
2023/01/25 11:19:32;;;;;;;17.37;12.03;;;0.80;99.90;;;;;;5095901;28;20212;-70
2023/01/25 11:22:00;;;;;;;17.30;12.20;;;0.90;99.90;;;;;;5095915;28;20257;-71
2023/01/25 11:24:28;;;;;;;17.53;11.80;;;0.90;99.90;;;;;;5095668;28;20222;-72
2023/01/25 11:27:29;;;;;;;21.97;13.57;;;0.90;99.90;;;;;;5095789;28;20224;-72
2023/01/25 11:30:09;;;;;;;16.87;12.00;;;0.90;99.90;;;;;;5033330;28;20267;-72
2023/01/25 11:32:38;;;;;;;18.90;12.27;;;0.80;99.90;;;;;;5033186;28;20194;-72
2023/01/25 11:35:12;;;;;;;20.53;13.73;;;0.90;99.90;;;;;;5067674;28;20227;-72
2023/01/25 11:37:58;;;;;;;19.97;12.40;;;0.90;99.90;;;;;;5095106;28;20609;-71
2023/01/25 11:40:33;;;;;;;16.07;11.17;;;0.90;99.90;;;;;;5095668;28;20643;-71
2023/01/25 11:43:06;;;;;;;20.60;13.20;;;0.90;99.90;;;;;;5095940;28;20281;-71
2023/01/25 11:46:07;;;;;;;17.90;12.33;;;0.90;99.90;;;;;;5095601;28;20197;-72
2023/01/25 11:48:57;;;;;;;18.17;12.17;;;1.00;99.90;;;;;;5095537;28;20246;-71
2023/01/25 11:51:32;;;;;;;19.43;12.23;;;1.00;99.90;;;;;;5095293;28;20605;-72
2023/01/25 11:54:28;;;;;;;18.67;11.47;;;0.90;99.90;;;;;;5095367;28;20200;-71
2023/01/25 11:56:59;;;;;;;18.23;11.90;;;0.90;99.90;;;;;;5069299;28;20197;-72
2023/01/25 11:59:47;;;;;;;18.77;12.23;;;0.90;99.90;;;;;;5095172;28;20196;-71
2023/01/25 12:02:40;;;;;;;19.60;12.67;;;0.90;99.90;;;;;;5095147;28;20228;-71
2023/01/25 12:05:23;;;;;;;20.57;12.77;;;0.90;99.90;;;;;;5095188;28;20197;-71
2023/01/25 12:08:05;;;;;;;16.80;11.47;;;0.90;99.90;;;;;;5094668;28;20694;-71
2023/01/25 12:10:45;;;;;;;17.60;11.20;;;1.00;99.90;;;;;;5094588;28;20625;-72
2023/01/25 12:13:20;;;;;;;20.83;12.77;;;0.90;99.90;;;;;;5095097;28;20253;-71
2023/01/25 12:16:08;;;;;;;14.73;10.53;;;1.00;99.90;;;;;;5094962;28;20196;-72
2023/01/25 12:19:02;;;;;;;16.83;11.67;;;0.90;99.90;;;;;;5094785;28;20537;-72
2023/01/25 12:21:46;;;;;;;15.20;11.10;;;0.90;99.90;;;;;;5094951;28;20196;-71
2023/01/25 12:24:32;;;;;;;17.50;11.33;;;0.90;99.90;;;;;;5094725;28;20211;-70
2023/01/25 12:27:12;;;;;;;18.13;11.73;;;0.80;99.90;;;;;;5094747;28;20223;-71
2023/01/25 12:29:42;;;;;;;22.47;12.10;;;0.90;99.90;;;;;;5094817;28;20559;-71
2023/01/25 12:32:16;;;;;;;16.37;11.43;;;0.90;99.90;;;;;;5094652;28;20200;-72
2023/01/25 12:34:46;;;;;;;19.07;13.37;;;0.90;99.90;;;;;;5094410;28;20261;-71
2023/01/25 12:37:17;;;;;;;17.47;11.73;;;0.90;99.90;;;;;;5094397;28;20196;-72
2023/01/25 12:39:51;;;;;;;18.27;12.37;;;1.00;99.90;;;;;;5094483;28;20266;-71
2023/01/25 12:42:22;;;;;;;18.43;11.80;;;1.00;99.90;;;;;;5094261;28;20648;-70
2023/01/25 12:44:55;;;;;;;18.27;11.73;;;0.90;99.90;;;;;;5094409;28;20200;-71
2023/01/25 12:47:31;;;;;;;20.00;13.20;;;1.00;99.90;;;;;;5094208;28;20804;-71
2023/01/25 12:50:04;;;;;;;17.60;12.40;;;0.90;99.90;;;;;;5093126;28;20192;-71